Newberg, Oregon
Current Conditions -  °F | °C
As of 7:53 AM on Saturday 25 Oct 2014 (Local Time) from KUAO Reporting Station
Few Clouds Few Clouds  
Wind Chill: 51°   Ceiling: Unl
Heat Index: 51°   Visibility: 10mi
Dew Point: 50°   Wind: 8mph
Humidity: 96%   Direction: 90°E
Pressure: 29.51"   Gusts: NA
Location:  45.3°N, 122.97°W
Report Text: KUAO 251453Z AUTO 09007KT 10SM FEW022 FEW070 11/10 A2951 RMK AO2 RAE44 SLP994 P0004 60007 T01060100 50001
Loading
Personal Weather Stations






























Interactive Weather Map
Tropical Storm Tracking
New forecast layout! Learn more

10-Day Weather Forecast

Advertisements
Track Severe Weather on mobile